Time;durP1;ratioP1;P1;durP2;ratioP2;P2;SDS_P1;SDS_P2;PMS_P1;PMS_P2;Temp;Humidity;BMP_temperature;BMP_pressure;BME280_temperature;BME280_humidity;BME280_pressure;Samples;Min_cycle;Max_cycle;Signal;HPM_P1;HPM_P2
2021/05/18 00:01:51;;;;;;;6.25;3.38;;;11.50;99.90;;;;;;5033413;28;20034;-43
2021/05/18 00:04:16;;;;;;;3.58;3.25;;;11.50;99.90;;;;;;5051248;28;20041;-44
2021/05/18 00:06:42;;;;;;;6.32;3.00;;;11.50;99.90;;;;;;5051265;28;20036;-44
2021/05/18 00:11:52;;;;;;;4.40;2.90;;;11.50;99.90;;;;;;5051649;28;20122;-44
2021/05/18 00:14:26;;;;;;;4.00;3.33;;;11.50;99.90;;;;;;5051487;28;20017;-44
2021/05/18 00:16:53;;;;;;;4.68;3.35;;;11.50;99.90;;;;;;5050370;28;20029;-44
2021/05/18 00:19:19;;;;;;;5.35;3.05;;;11.50;99.90;;;;;;5050299;28;20028;-45
2021/05/18 00:21:46;;;;;;;3.70;2.85;;;11.50;99.90;;;;;;5050927;28;20025;-44
2021/05/18 00:24:12;;;;;;;3.58;3.28;;;11.50;99.90;;;;;;5051191;28;20489;-44
2021/05/18 00:26:38;;;;;;;5.13;3.63;;;11.50;99.90;;;;;;5051063;28;20112;-44
2021/05/18 00:29:05;;;;;;;4.72;3.70;;;11.50;99.90;;;;;;5050258;28;20029;-43
2021/05/18 00:31:31;;;;;;;6.03;4.00;;;11.50;99.90;;;;;;5050415;28;20025;-44
2021/05/18 00:33:57;;;;;;;6.78;3.90;;;11.50;99.90;;;;;;5050900;28;20098;-44
2021/05/18 00:36:22;;;;;;;3.40;3.10;;;11.50;99.90;;;;;;5050616;28;20053;-43
2021/05/18 00:38:48;;;;;;;8.82;4.10;;;11.50;99.90;;;;;;5049787;28;20264;-44
2021/05/18 00:41:14;;;;;;;6.97;4.68;;;11.50;99.90;;;;;;5050482;28;20033;-44
2021/05/18 00:43:40;;;;;;;4.57;3.97;;;11.50;99.90;;;;;;5032332;28;20116;-44
2021/05/18 00:46:07;;;;;;;4.15;3.72;;;11.50;99.90;;;;;;5050057;28;20029;-45
2021/05/18 00:48:34;;;;;;;5.25;3.78;;;11.40;99.90;;;;;;5049481;28;20032;-43
2021/05/18 00:51:08;;;;;;;4.90;4.13;;;11.40;99.90;;;;;;5032196;28;20059;-45
2021/05/18 00:53:34;;;;;;;4.80;3.70;;;11.40;99.90;;;;;;5050326;28;20017;-45
2021/05/18 00:56:04;;;;;;;8.00;3.55;;;11.50;99.90;;;;;;5050282;28;20033;-46
2021/05/18 00:58:39;;;;;;;4.60;3.95;;;11.50;99.90;;;;;;5049563;28;20023;-45
2021/05/18 01:01:10;;;;;;;11.18;3.65;;;11.50;99.90;;;;;;5049817;28;20052;-45
2021/05/18 01:03:36;;;;;;;;;;;11.40;99.90;;;;;;5050157;28;20315;-44
2021/05/18 01:09:10;;;;;;;4.57;3.33;;;11.40;99.90;;;;;;4987149;28;20027;-44
2021/05/18 01:11:40;;;;;;;3.95;3.58;;;11.40;99.90;;;;;;5039358;28;20557;-45
2021/05/18 01:14:11;;;;;;;6.00;3.50;;;11.40;99.90;;;;;;5049836;28;20032;-44
2021/05/18 01:16:41;;;;;;;3.83;3.10;;;11.40;99.90;;;;;;5049787;28;20483;-44
2021/05/18 01:19:07;;;;;;;4.65;3.75;;;11.40;99.90;;;;;;5049079;28;20032;-44
2021/05/18 01:21:33;;;;;;;4.40;3.42;;;11.40;99.90;;;;;;5050129;28;20517;-46
2021/05/18 01:24:00;;;;;;;4.65;4.00;;;11.50;99.90;;;;;;5049829;28;20033;-44
2021/05/18 01:26:27;;;;;;;6.30;3.92;;;11.40;99.90;;;;;;5049813;28;20091;-45
2021/05/18 01:28:53;;;;;;;7.18;4.55;;;11.50;99.90;;;;;;5030535;28;20083;-45
2021/05/18 01:31:22;;;;;;;6.57;4.72;;;11.50;99.90;;;;;;5031537;28;20021;-44
2021/05/18 01:33:49;;;;;;;8.35;6.30;;;11.50;99.90;;;;;;5049645;28;20051;-43
2021/05/18 01:36:18;;;;;;;9.15;6.55;;;11.50;99.90;;;;;;5049391;28;20025;-44
2021/05/18 01:43:56;;;;;;;9.95;7.55;;;11.40;99.90;;;;;;5049460;28;20032;-44
2021/05/18 01:46:24;;;;;;;10.52;7.75;;;11.40;99.90;;;;;;5049327;28;20083;-44
2021/05/18 01:49:04;;;;;;;10.57;8.13;;;11.40;99.90;;;;;;5053551;28;20037;-45
2021/05/18 01:51:33;;;;;;;10.93;7.80;;;11.50;99.90;;;;;;5059734;28;20588;-44
2021/05/18 01:54:05;;;;;;;11.27;8.80;;;11.50;99.90;;;;;;5058407;28;20033;-44
2021/05/18 01:59:06;;;;;;;12.65;8.10;;;11.50;99.90;;;;;;5059041;28;20025;-44
2021/05/18 02:01:33;;;;;;;9.90;8.45;;;11.50;99.90;;;;;;5057274;28;20104;-44
2021/05/18 02:03:59;;;;;;;11.98;9.05;;;11.50;99.90;;;;;;5057058;28;20426;-45
2021/05/18 02:06:25;;;;;;;14.00;9.40;;;11.50;99.90;;;;;;5058034;28;20427;-44
2021/05/18 02:08:52;;;;;;;11.23;8.98;;;11.40;99.90;;;;;;5057468;28;20067;-45
2021/05/18 02:11:17;;;;;;;11.70;9.35;;;11.40;99.90;;;;;;5059263;28;20043;-44
2021/05/18 02:13:49;;;;;;;12.60;10.45;;;11.40;99.90;;;;;;5057737;28;20029;-44
2021/05/18 02:16:24;;;;;;;18.42;10.82;;;11.30;99.90;;;;;;5057252;28;20625;-44
2021/05/18 02:21:55;;;;;;;18.08;11.63;;;11.10;99.90;;;;;;5059706;28;20532;-44
2021/05/18 02:24:41;;;;;;;18.58;12.32;;;11.10;99.90;;;;;;5040885;28;20095;-44
2021/05/18 02:27:07;;;;;;;19.30;13.05;;;11.00;99.90;;;;;;5059132;28;20017;-44
2021/05/18 02:29:33;;;;;;;20.70;13.85;;;10.90;99.90;;;;;;5057089;28;20397;-45
2021/05/18 02:31:58;;;;;;;16.98;12.00;;;10.90;99.90;;;;;;5058168;28;20037;-44
2021/05/18 02:34:24;;;;;;;21.42;13.25;;;10.90;99.90;;;;;;5058980;28;20483;-44
2021/05/18 02:36:49;;;;;;;20.50;14.15;;;10.90;99.90;;;;;;5056875;28;20021;-44
2021/05/18 02:39:16;;;;;;;21.50;14.43;;;10.80;99.90;;;;;;5061220;28;20267;-44
2021/05/18 02:41:41;;;;;;;25.65;15.68;;;10.80;99.90;;;;;;5050467;28;20039;-44
2021/05/18 02:44:32;;;;;;;25.50;15.85;;;10.80;99.90;;;;;;5068546;28;20024;-44
2021/05/18 02:49:40;;;;;;;29.00;17.55;;;10.70;99.90;;;;;;5067971;28;20034;-52
2021/05/18 02:52:05;;;;;;;30.15;18.55;;;10.70;99.90;;;;;;5068427;28;20021;-44
2021/05/18 02:54:31;;;;;;;31.52;19.05;;;10.80;99.90;;;;;;5041660;28;20040;-45
2021/05/18 02:57:05;;;;;;;27.75;18.35;;;10.70;99.90;;;;;;5048058;28;20060;-45
2021/05/18 02:59:31;;;;;;;30.92;17.98;;;10.80;99.90;;;;;;5047591;28;20526;-44
2021/05/18 03:01:59;;;;;;;31.52;17.00;;;10.70;99.90;;;;;;5048125;28;20108;-44
2021/05/18 03:04:26;;;;;;;32.25;19.60;;;10.70;99.90;;;;;;5047513;28;20569;-45
2021/05/18 03:06:53;;;;;;;34.17;18.50;;;10.70;99.90;;;;;;5048104;28;20114;-44
2021/05/18 03:09:19;;;;;;;30.77;18.17;;;10.70;99.90;;;;;;5048065;28;20373;-45
2021/05/18 03:11:47;;;;;;;32.88;20.17;;;10.70;99.90;;;;;;5048108;28;20491;-44
2021/05/18 03:14:14;;;;;;;34.45;20.20;;;10.60;99.90;;;;;;5048119;28;20025;-45
2021/05/18 03:16:42;;;;;;;35.60;19.77;;;10.50;99.90;;;;;;5048058;28;20075;-45
2021/05/18 03:19:09;;;;;;;30.42;19.60;;;10.60;99.90;;;;;;5047370;28;20025;-44
2021/05/18 03:21:37;;;;;;;35.65;20.25;;;10.60;99.90;;;;;;5048059;28;20036;-47
2021/05/18 03:24:03;;;;;;;35.75;19.30;;;10.60;99.90;;;;;;5048053;28;20540;-47
2021/05/18 03:26:29;;;;;;;36.65;19.77;;;10.50;99.90;;;;;;5047898;28;20113;-45
2021/05/18 03:28:59;;;;;;;39.35;21.50;;;10.50;99.90;;;;;;5047235;28;20547;-45
2021/05/18 03:36:56;;;;;;;35.00;20.52;;;10.50;99.90;;;;;;5058334;28;20094;-43
2021/05/18 03:39:22;;;;;;;35.00;19.90;;;10.50;99.90;;;;;;5065031;28;20493;-44
2021/05/18 03:42:23;;;;;;;32.60;19.05;;;10.50;99.90;;;;;;5067962;28;20195;-44
2021/05/18 03:52:46;;;;;;;37.35;20.55;;;10.30;99.90;;;;;;5051456;28;20040;-44
2021/05/18 03:58:36;;;;;;;31.50;20.10;;;10.30;99.90;;;;;;5033476;28;20394;-44
2021/05/18 03:58:53;;;;;;;38.47;20.92;;;10.20;99.90;;;;;;5050742;28;20072;-44
2021/05/18 04:04:44;;;;;;;35.00;20.58;;;10.20;99.90;;;;;;5050280;28;20468;-46
2021/05/18 04:18:03;;;;;;;30.38;18.40;;;10.00;99.90;;;;;;5050612;28;20464;-44
2021/05/18 04:51:00;;;;;;;33.97;16.52;;;9.90;99.90;;;;;;5083041;28;20862;-43
2021/05/18 05:04:06;;;;;;;27.50;15.25;;;10.00;99.90;;;;;;5066311;28;20028;-46
2021/05/18 05:06:45;;;;;;;28.05;15.88;;;10.00;99.90;;;;;;5066357;28;20018;-43
2021/05/18 05:14:30;;;;;;;21.27;14.45;;;10.10;99.90;;;;;;5062185;28;20048;-43
2021/05/18 05:16:55;;;;;;;21.42;12.82;;;10.10;99.90;;;;;;5065921;28;20418;-44
2021/05/18 05:19:26;;;;;;;22.75;12.05;;;10.20;99.90;;;;;;5064668;28;20027;-45
2021/05/18 05:21:51;;;;;;;29.98;13.68;;;10.20;99.90;;;;;;5065317;28;20055;-44
2021/05/18 05:24:17;;;;;;;24.17;13.70;;;10.30;99.90;;;;;;5063393;28;20033;-44
2021/05/18 05:26:42;;;;;;;25.50;12.27;;;10.40;99.90;;;;;;5063608;28;20522;-44
2021/05/18 05:29:09;;;;;;;22.08;12.48;;;10.50;99.90;;;;;;5065816;28;20032;-43
2021/05/18 05:31:36;;;;;;;18.60;11.98;;;10.60;99.90;;;;;;5066418;28;20025;-44
2021/05/18 05:34:02;;;;;;;20.30;10.98;;;10.80;99.90;;;;;;5066200;28;20120;-44
2021/05/18 05:36:27;;;;;;;23.83;12.00;;;10.80;99.90;;;;;;5066303;28;20719;-46
2021/05/18 05:38:59;;;;;;;26.10;11.88;;;10.80;99.90;;;;;;5065693;28;20059;-44
2021/05/18 05:41:25;;;;;;;24.65;12.05;;;10.80;99.90;;;;;;5065514;28;20055;-47
2021/05/18 05:43:50;;;;;;;22.13;11.23;;;10.90;99.90;;;;;;5066032;28;20028;-44
2021/05/18 05:46:16;;;;;;;20.05;10.90;;;10.90;99.90;;;;;;5065884;28;20371;-47
2021/05/18 05:48:41;;;;;;;17.55;9.95;;;10.90;99.90;;;;;;5062850;28;20497;-44
2021/05/18 05:51:07;;;;;;;18.75;11.57;;;11.00;99.90;;;;;;5065446;28;20056;-43
2021/05/18 05:53:32;;;;;;;21.02;11.52;;;11.10;99.90;;;;;;5065765;28;20023;-45
2021/05/18 05:55:58;;;;;;;23.13;11.75;;;11.20;99.90;;;;;;5065395;28;20674;-45
2021/05/18 05:58:24;;;;;;;22.38;11.15;;;11.10;99.90;;;;;;5064898;28;20074;-44
2021/05/18 06:00:49;;;;;;;23.67;10.43;;;11.20;99.90;;;;;;5059418;28;20018;-46
2021/05/18 06:03:15;;;;;;;18.88;9.90;;;11.10;99.90;;;;;;5052258;28;20029;-45
2021/05/18 06:05:40;;;;;;;16.02;10.02;;;11.20;99.90;;;;;;5052311;28;20525;-44
2021/05/18 06:08:06;;;;;;;16.98;9.73;;;11.10;99.90;;;;;;5052009;28;20032;-43
2021/05/18 06:10:35;;;;;;;16.65;9.30;;;11.20;99.90;;;;;;5052420;28;20025;-42
2021/05/18 06:13:15;;;;;;;16.52;8.52;;;11.30;99.90;;;;;;5051215;28;20582;-42
2021/05/18 06:16:31;;;;;;;19.92;9.15;;;11.40;99.90;;;;;;5052267;28;20129;-43
2021/05/18 06:30:00;;;;;;;13.55;7.03;;;11.60;99.90;;;;;;5051405;28;20741;-47
2021/05/18 06:37:45;;;;;;;17.20;8.02;;;11.90;99.90;;;;;;5049582;28;20021;-45
2021/05/18 06:43:06;;;;;;;16.40;9.50;;;12.20;99.90;;;;;;5050755;28;20040;-45
2021/05/18 06:48:14;;;;;;;17.00;8.95;;;12.00;99.90;;;;;;5048776;28;20060;-44
2021/05/18 06:50:40;;;;;;;14.18;8.73;;;11.90;99.90;;;;;;5048112;28;20035;-44
2021/05/18 06:53:05;;;;;;;22.83;9.50;;;11.90;99.90;;;;;;5050564;28;20044;-45
2021/05/18 06:55:34;;;;;;;15.93;7.68;;;12.10;99.90;;;;;;5051215;28;20048;-45
2021/05/18 06:58:08;;;;;;;14.20;7.70;;;12.20;99.90;;;;;;5050478;28;20025;-44
2021/05/18 07:00:39;;;;;;;19.55;8.02;;;12.40;99.90;;;;;;5050620;28;20402;-55
2021/05/18 07:03:09;;;;;;;18.55;8.27;;;12.50;99.90;;;;;;5050011;28;20506;-45
2021/05/18 07:05:41;;;;;;;17.05;7.32;;;12.60;99.90;;;;;;5048024;28;20379;-44
2021/05/18 07:08:53;;;;;;;17.20;8.13;;;12.70;99.90;;;;;;5048908;28;20025;-45
2021/05/18 07:10:55;;;;;;;14.57;6.57;;;12.90;99.90;;;;;;5049767;28;20041;-45
2021/05/18 07:13:21;;;;;;;13.13;7.40;;;13.00;99.90;;;;;;5048125;28;20059;-45
2021/05/18 07:15:46;;;;;;;10.52;5.97;;;13.20;99.90;;;;;;5049606;28;20029;-46
2021/05/18 07:18:12;;;;;;;10.65;7.00;;;13.30;99.90;;;;;;5048620;28;20032;-45
2021/05/18 07:20:38;;;;;;;16.65;7.40;;;13.40;99.90;;;;;;5048680;28;20075;-44
2021/05/18 07:23:09;;;;;;;12.50;6.43;;;13.40;99.90;;;;;;5049651;28;20120;-45
2021/05/18 07:25:35;;;;;;;18.05;8.23;;;13.40;99.90;;;;;;5029642;28;20028;-45
2021/05/18 07:28:06;;;;;;;8.65;5.18;;;13.40;99.90;;;;;;5028839;28;20053;-44
2021/05/18 07:30:33;;;;;;;14.32;7.78;;;13.60;99.90;;;;;;5049275;28;20021;-45
2021/05/18 07:32:59;;;;;;;13.70;7.47;;;13.50;99.90;;;;;;5048099;28;20039;-44
2021/05/18 07:35:25;;;;;;;15.43;6.00;;;13.50;99.90;;;;;;5047541;28;21405;-44
2021/05/18 07:37:51;;;;;;;13.95;6.05;;;13.60;99.90;;;;;;5047072;28;20498;-44
2021/05/18 07:40:16;;;;;;;10.93;5.20;;;13.50;99.90;;;;;;5048700;28;20020;-43
2021/05/18 07:42:42;;;;;;;13.07;5.53;;;13.50;99.90;;;;;;5048825;28;20027;-44
2021/05/18 07:45:08;;;;;;;9.00;6.03;;;13.20;99.90;;;;;;5048901;28;20112;-44
2021/05/18 07:47:36;;;;;;;17.38;6.25;;;13.30;99.90;;;;;;5049412;28;20394;-44
2021/05/18 07:50:25;;;;;;;15.48;6.97;;;13.30;99.90;;;;;;5049428;28;20036;-44
2021/05/18 08:06:16;;;;;;;11.18;5.03;;;13.00;99.90;;;;;;5049478;28;20079;-44
2021/05/18 08:08:41;;;;;;;10.68;5.35;;;12.90;99.90;;;;;;5047857;28;20030;-44
2021/05/18 08:11:07;;;;;;;12.35;5.05;;;13.10;99.90;;;;;;5047992;28;20487;-44
2021/05/18 08:13:33;;;;;;;7.65;4.68;;;13.30;99.90;;;;;;5048168;28;20371;-45
2021/05/18 08:16:47;;;;;;;8.45;4.88;;;13.50;99.90;;;;;;5046994;28;20271;-44
2021/05/18 08:53:02;;;;;;;10.13;3.53;;;15.10;99.90;;;;;;5048434;28;20636;-45
2021/05/18 09:30:08;;;;;;;12.13;8.20;;;14.50;99.90;;;;;;5045259;28;20039;-44
2021/05/18 10:35:56;;;;;;;13.20;6.13;;;14.30;99.90;;;;;;5052039;28;20033;-43
2021/05/18 10:38:38;;;;;;;10.85;6.40;;;14.30;99.90;;;;;;5051535;28;20446;-44
2021/05/18 10:41:25;;;;;;;12.95;7.60;;;14.30;99.90;;;;;;5049909;28;20474;-42
2021/05/18 10:44:01;;;;;;;11.48;7.22;;;14.10;99.90;;;;;;5052235;28;20025;-45
2021/05/18 10:46:30;;;;;;;10.27;7.00;;;14.10;99.90;;;;;;5051552;28;20019;-43
2021/05/18 10:49:03;;;;;;;11.35;6.90;;;14.10;99.90;;;;;;5050899;28;20041;-43
2021/05/18 10:51:33;;;;;;;12.05;5.85;;;14.10;99.90;;;;;;5051244;28;20032;-44
2021/05/18 10:54:17;;;;;;;11.38;5.93;;;14.00;99.90;;;;;;5051952;28;20474;-43
2021/05/18 10:56:54;;;;;;;8.80;5.68;;;14.20;99.90;;;;;;5050785;28;20021;-43
2021/05/18 10:59:27;;;;;;;9.00;6.55;;;14.40;99.90;;;;;;5037725;28;20096;-44
2021/05/18 11:02:06;;;;;;;10.02;5.97;;;14.50;99.90;;;;;;5039598;28;20032;-44
2021/05/18 11:04:34;;;;;;;9.85;6.22;;;14.60;99.90;;;;;;5051669;28;20017;-44
2021/05/18 11:07:02;;;;;;;10.40;5.55;;;15.00;99.90;;;;;;5051403;28;20090;-44
2021/05/18 11:09:29;;;;;;;10.48;6.20;;;15.20;99.90;;;;;;5049810;28;20468;-44
2021/05/18 11:12:00;;;;;;;12.77;6.65;;;15.40;99.90;;;;;;5050467;28;20497;-45
2021/05/18 11:14:39;;;;;;;11.60;5.82;;;15.80;99.90;;;;;;5051513;28;20031;-44
2021/05/18 11:17:07;;;;;;;8.73;4.85;;;16.30;99.90;;;;;;5051487;28;20017;-44
2021/05/18 11:19:33;;;;;;;7.80;4.45;;;16.70;98.60;;;;;;5050601;28;20027;-44
2021/05/18 11:22:00;;;;;;;7.35;4.05;;;17.30;97.20;;;;;;5050621;28;20104;-47
2021/05/18 11:24:25;;;;;;;7.20;4.70;;;18.70;94.40;;;;;;5050748;28;20047;-43
2021/05/18 11:26:51;;;;;;;8.57;4.72;;;19.50;88.20;;;;;;5050843;28;20025;-44
2021/05/18 11:29:41;;;;;;;6.55;4.68;;;19.50;86.30;;;;;;5048624;28;20564;-43
2021/05/18 11:32:10;;;;;;;6.93;4.05;;;19.00;85.30;;;;;;5049159;28;20025;-44
2021/05/18 11:34:59;;;;;;;5.75;3.95;;;18.80;81.20;;;;;;5043541;28;20034;-43
2021/05/18 11:37:26;;;;;;;6.00;4.22;;;18.40;80.80;;;;;;5046075;28;20363;-43
2021/05/18 11:40:09;;;;;;;7.18;4.35;;;18.00;83.60;;;;;;5050714;28;20446;-43
2021/05/18 11:42:35;;;;;;;8.70;4.07;;;17.90;87.90;;;;;;5049460;28;20021;-43
2021/05/18 11:45:16;;;;;;;5.65;4.00;;;18.10;84.30;;;;;;5049203;28;20031;-43
2021/05/18 11:47:43;;;;;;;6.93;4.97;;;18.50;83.50;;;;;;5048789;28;20032;-43
2021/05/18 11:50:29;;;;;;;6.35;3.63;;;18.60;80.50;;;;;;5045862;28;20111;-43
2021/05/18 11:52:55;;;;;;;4.45;3.30;;;19.10;83.60;;;;;;5040498;28;20187;-43
2021/05/18 11:55:25;;;;;;;5.97;3.67;;;19.40;76.40;;;;;;5049006;28;20475;-43
2021/05/18 11:57:52;;;;;;;7.10;3.50;;;19.40;77.40;;;;;;5048203;28;20104;-45
2021/05/18 12:00:25;;;;;;;5.07;3.75;;;19.50;76.50;;;;;;5048616;28;20032;-44
2021/05/18 12:03:00;;;;;;;5.15;3.10;;;19.60;72.20;;;;;;5047961;28;20052;-43
2021/05/18 12:05:26;;;;;;;8.32;3.40;;;19.50;79.30;;;;;;5048437;28;20029;-43
2021/05/18 12:07:52;;;;;;;4.20;3.08;;;19.10;75.40;;;;;;5048064;28;20083;-43
2021/05/18 12:10:35;;;;;;;7.07;3.20;;;19.10;77.40;;;;;;5048391;28;20025;-45
2021/05/18 12:13:01;;;;;;;6.65;3.05;;;19.50;75.70;;;;;;5047947;28;20537;-45
2021/05/18 12:15:27;;;;;;;5.10;3.03;;;19.40;68.20;;;;;;5041263;28;20215;-43
2021/05/18 12:17:55;;;;;;;5.05;3.03;;;19.40;72.20;;;;;;5036561;28;20030;-44
2021/05/18 12:20:21;;;;;;;6.22;2.75;;;19.80;67.60;;;;;;5041495;28;20055;-46
2021/05/18 12:22:48;;;;;;;3.15;2.30;;;19.40;70.00;;;;;;5046842;28;20039;-44
2021/05/18 12:25:32;;;;;;;3.70;2.42;;;19.50;70.70;;;;;;5037395;28;20053;-43
2021/05/18 12:28:06;;;;;;;3.75;2.10;;;19.00;67.70;;;;;;5034213;28;20112;-43
2021/05/18 12:30:36;;;;;;;3.90;2.17;;;18.50;66.10;;;;;;5046919;28;20028;-43
2021/05/18 12:33:02;;;;;;;3.10;2.15;;;18.50;70.60;;;;;;5046357;28;20032;-43
2021/05/18 12:35:28;;;;;;;2.95;2.00;;;18.10;68.60;;;;;;5044876;28;20462;-43
2021/05/18 12:37:55;;;;;;;4.82;2.25;;;17.80;72.70;;;;;;5041170;28;20025;-45
2021/05/18 12:40:26;;;;;;;5.43;2.35;;;17.60;70.90;;;;;;5039239;28;20017;-43
2021/05/18 12:42:53;;;;;;;3.28;2.10;;;17.20;72.00;;;;;;5038709;28;20025;-43
2021/05/18 12:45:26;;;;;;;2.35;1.83;;;17.30;74.90;;;;;;5036919;28;20029;-43
2021/05/18 12:47:58;;;;;;;7.28;2.45;;;17.50;74.90;;;;;;5040611;28;20136;-43
2021/05/18 12:50:35;;;;;;;4.18;2.85;;;18.00;76.80;;;;;;5039291;28;20025;-45
2021/05/18 12:53:00;;;;;;;3.08;2.10;;;18.40;75.70;;;;;;5044973;28;20471;-44
2021/05/18 12:55:30;;;;;;;2.35;1.80;;;18.90;73.60;;;;;;5046441;28;20067;-44
2021/05/18 12:57:58;;;;;;;6.28;2.20;;;19.10;72.30;;;;;;5046590;28;20502;-47
2021/05/18 13:00:41;;;;;;;5.53;2.03;;;19.60;74.00;;;;;;5040246;28;20111;-48
2021/05/18 13:03:16;;;;;;;4.65;2.42;;;19.80;68.70;;;;;;5054890;28;20031;-45
2021/05/18 13:05:53;;;;;;;3.35;1.92;;;19.50;67.40;;;;;;5044483;28;20036;-44
2021/05/18 13:08:20;;;;;;;3.53;2.20;;;19.40;69.40;;;;;;5047221;28;20063;-45
2021/05/18 13:10:57;;;;;;;2.05;1.80;;;19.40;71.40;;;;;;5045205;28;20026;-45
2021/05/18 13:13:24;;;;;;;3.78;2.67;;;19.30;69.40;;;;;;5050404;28;20186;-45
2021/05/18 13:15:51;;;;;;;5.00;2.50;;;19.20;68.00;;;;;;5051720;28;20206;-44
2021/05/18 13:18:17;;;;;;;4.30;2.50;;;19.10;69.70;;;;;;5048510;28;20028;-44
2021/05/18 13:20:52;;;;;;;4.07;2.63;;;18.90;70.60;;;;;;5051342;28;20041;-44
2021/05/18 13:23:30;;;;;;;3.38;2.30;;;18.90;69.60;;;;;;5047707;28;20031;-44
2021/05/18 13:28:41;;;;;;;3.72;2.60;;;18.40;73.70;;;;;;5048718;28;20068;-44
2021/05/18 13:31:07;;;;;;;6.53;2.70;;;18.20;70.10;;;;;;5050745;28;20037;-45
2021/05/18 13:33:33;;;;;;;3.50;2.58;;;18.50;67.50;;;;;;5051354;28;20143;-45
2021/05/18 13:36:00;;;;;;;4.28;2.80;;;18.40;68.50;;;;;;5050005;28;20071;-46
2021/05/18 13:38:25;;;;;;;4.38;2.35;;;18.70;72.20;;;;;;5050587;28;20013;-45
2021/05/18 13:40:51;;;;;;;3.88;2.63;;;18.90;71.60;;;;;;5050443;28;20052;-45
2021/05/18 13:43:18;;;;;;;4.45;2.15;;;18.80;67.00;;;;;;5048315;28;20052;-44
2021/05/18 13:45:43;;;;;;;4.05;2.60;;;18.90;69.40;;;;;;5051170;28;20041;-45
2021/05/18 13:48:09;;;;;;;4.32;2.40;;;18.80;70.10;;;;;;5050647;28;20069;-45
2021/05/18 13:50:35;;;;;;;5.00;2.42;;;19.00;70.50;;;;;;5049614;28;20432;-45
2021/05/18 13:53:01;;;;;;;2.97;2.00;;;19.10;74.10;;;;;;5049954;28;20021;-44
2021/05/18 13:55:27;;;;;;;2.83;2.47;;;19.40;73.10;;;;;;5050349;28;20052;-45
2021/05/18 13:57:53;;;;;;;4.68;3.20;;;19.70;73.10;;;;;;5049496;28;20114;-44
2021/05/18 14:00:20;;;;;;;3.75;2.60;;;19.60;68.00;;;;;;5051550;28;20583;-44
2021/05/18 14:02:47;;;;;;;3.90;2.30;;;19.20;69.80;;;;;;5050773;28;20500;-45
2021/05/18 14:05:19;;;;;;;8.00;5.00;;;19.20;72.20;;;;;;5049863;28;20028;-46
2021/05/18 14:11:21;;;;;;;5.90;3.17;;;19.60;71.60;;;;;;5041980;28;20044;-44
2021/05/18 14:13:48;;;;;;;3.80;2.78;;;19.30;67.30;;;;;;5049946;28;20063;-44
2021/05/18 14:16:18;;;;;;;3.55;2.67;;;19.10;70.90;;;;;;5050838;28;20490;-44
2021/05/18 14:18:46;;;;;;;3.88;2.88;;;19.30;68.80;;;;;;5050370;28;20056;-44
2021/05/18 14:21:11;;;;;;;3.90;2.38;;;19.30;69.80;;;;;;5050420;28;20051;-46
2021/05/18 14:23:46;;;;;;;6.00;3.53;;;19.20;70.90;;;;;;5049246;28;20375;-46
2021/05/18 14:26:11;;;;;;;3.42;2.45;;;19.00;69.40;;;;;;5044335;28;20028;-44
2021/05/18 14:28:39;;;;;;;3.00;2.50;;;18.90;70.40;;;;;;5048826;28;20033;-44
2021/05/18 14:31:07;;;;;;;3.25;2.45;;;18.70;70.60;;;;;;5050767;28;20040;-45
2021/05/18 14:33:33;;;;;;;6.43;2.95;;;18.70;69.30;;;;;;5050006;28;20050;-44
2021/05/18 14:35:59;;;;;;;5.68;2.60;;;18.60;70.50;;;;;;5046419;28;20017;-44
2021/05/18 14:38:25;;;;;;;3.15;2.25;;;18.70;70.90;;;;;;5046783;28;20036;-44
2021/05/18 14:42:48;;;;;;;4.35;2.65;;;18.50;68.10;;;;;;5049236;28;20024;-45
2021/05/18 14:46:43;;;;;;;5.32;2.38;;;18.50;68.20;;;;;;5049607;28;20036;-44
2021/05/18 14:57:38;;;;;;;;;;;18.80;71.60;;;;;;5027470;28;20100;-46
2021/05/18 15:00:05;;;;;;;3.55;2.13;;;18.90;67.70;;;;;;5045013;28;20054;-45
2021/05/18 15:02:31;;;;;;;3.47;2.35;;;18.80;69.70;;;;;;5048850;28;20447;-46
2021/05/18 15:04:56;;;;;;;6.55;2.85;;;18.90;69.70;;;;;;5048585;28;20036;-44
2021/05/18 15:07:22;;;;;;;3.88;2.20;;;18.80;68.90;;;;;;5049166;28;20103;-46
2021/05/18 15:09:47;;;;;;;4.82;3.08;;;18.70;71.00;;;;;;5049413;28;20083;-45
2021/05/18 15:12:13;;;;;;;5.10;2.72;;;18.70;68.80;;;;;;5050059;28;20245;-45
2021/05/18 15:14:38;;;;;;;3.88;2.65;;;18.60;69.40;;;;;;5047988;28;20028;-46
2021/05/18 15:17:04;;;;;;;6.15;2.90;;;18.90;67.70;;;;;;5049754;28;20375;-44
2021/05/18 15:19:30;;;;;;;2.25;2.05;;;19.10;67.80;;;;;;5048960;28;20547;-46
2021/05/18 15:21:58;;;;;;;3.05;2.45;;;19.20;68.40;;;;;;5049610;28;20071;-44
2021/05/18 15:24:25;;;;;;;4.20;2.28;;;18.90;65.70;;;;;;5049531;28;20548;-44
2021/05/18 15:26:50;;;;;;;3.03;2.38;;;19.10;66.70;;;;;;5049432;28;20051;-43
2021/05/18 15:29:16;;;;;;;3.53;2.42;;;18.90;62.40;;;;;;5048267;28;20508;-45
2021/05/18 15:31:41;;;;;;;5.85;2.47;;;18.90;62.50;;;;;;5049062;28;20441;-44
2021/05/18 15:34:07;;;;;;;5.68;2.45;;;19.00;67.30;;;;;;5048756;28;20071;-45
2021/05/18 15:36:33;;;;;;;3.50;2.50;;;19.20;66.10;;;;;;5049764;28;20052;-44
2021/05/18 15:38:58;;;;;;;5.20;2.63;;;19.40;64.60;;;;;;5048322;28;20019;-45
2021/05/18 15:41:24;;;;;;;4.43;2.80;;;19.20;66.70;;;;;;5049591;28;20035;-45
2021/05/18 15:43:50;;;;;;;5.03;2.30;;;19.20;67.90;;;;;;5049568;28;20021;-44
2021/05/18 15:46:16;;;;;;;4.07;2.90;;;19.10;69.70;;;;;;5049820;28;20053;-44
2021/05/18 15:48:42;;;;;;;3.50;2.03;;;19.00;67.40;;;;;;5047796;28;20065;-44
2021/05/18 15:51:07;;;;;;;3.58;2.35;;;18.80;67.40;;;;;;5049162;28;20116;-44
2021/05/18 15:53:33;;;;;;;4.20;2.60;;;18.60;67.10;;;;;;5049545;28;20112;-44
2021/05/18 15:55:59;;;;;;;6.55;2.40;;;18.30;65.50;;;;;;5049215;28;20021;-45
2021/05/18 15:58:26;;;;;;;3.33;2.38;;;18.10;68.10;;;;;;5048305;28;20021;-44
2021/05/18 16:00:53;;;;;;;6.15;2.75;;;18.10;67.60;;;;;;5048301;28;20029;-44
2021/05/18 16:03:19;;;;;;;5.88;2.95;;;18.10;67.00;;;;;;5048763;28;20017;-45
2021/05/18 16:05:45;;;;;;;4.07;3.05;;;17.90;69.70;;;;;;5048311;28;20416;-45
2021/05/18 16:10:52;;;;;;;3.47;2.90;;;18.00;69.50;;;;;;5049180;28;20064;-45
2021/05/18 16:13:18;;;;;;;4.18;2.92;;;17.90;67.70;;;;;;5048373;28;20045;-45
2021/05/18 16:15:43;;;;;;;5.03;3.20;;;17.60;69.00;;;;;;5048633;28;20579;-44
2021/05/18 16:18:09;;;;;;;4.05;2.70;;;17.40;70.40;;;;;;5048644;28;20025;-46
2021/05/18 16:20:35;;;;;;;3.10;2.40;;;17.20;71.30;;;;;;5048730;28;20100;-45
2021/05/18 16:23:00;;;;;;;2.90;2.60;;;17.00;71.80;;;;;;5049002;28;20025;-44
2021/05/18 16:25:26;;;;;;;4.97;3.08;;;16.80;73.80;;;;;;5049473;28;20051;-43
2021/05/18 16:27:51;;;;;;;3.97;2.72;;;16.70;74.80;;;;;;5049351;28;20029;-43
2021/05/18 16:30:17;;;;;;;4.90;2.97;;;16.60;73.30;;;;;;5049661;28;20495;-44
2021/05/18 16:32:43;;;;;;;3.63;2.90;;;16.50;73.90;;;;;;5049652;28;20029;-44
2021/05/18 16:35:08;;;;;;;5.60;3.55;;;16.40;74.30;;;;;;5048642;28;20629;-43
2021/05/18 16:37:34;;;;;;;5.85;3.63;;;16.30;74.30;;;;;;5048477;28;20063;-43
2021/05/18 16:39:59;;;;;;;4.10;3.70;;;16.30;74.90;;;;;;5047331;28;20024;-43
2021/05/18 16:42:25;;;;;;;7.32;3.95;;;16.10;77.00;;;;;;5047199;28;20029;-44
2021/05/18 16:44:50;;;;;;;6.20;3.83;;;16.20;76.30;;;;;;5048248;28;20036;-44
2021/05/18 16:47:16;;;;;;;6.93;4.05;;;16.00;76.60;;;;;;5048112;28;20086;-44
2021/05/18 16:49:41;;;;;;;6.60;4.28;;;15.90;77.80;;;;;;5047129;28;20041;-44
2021/05/18 16:52:07;;;;;;;5.95;3.33;;;16.00;77.50;;;;;;5046712;28;20135;-43
2021/05/18 16:54:32;;;;;;;5.45;3.65;;;15.90;78.50;;;;;;5047996;28;20463;-43
2021/05/18 16:56:58;;;;;;;5.00;2.75;;;15.80;80.20;;;;;;5048846;28;20036;-44
2021/05/18 16:59:23;;;;;;;4.78;2.50;;;15.80;80.90;;;;;;5049259;28;20037;-43
2021/05/18 17:01:50;;;;;;;4.47;2.60;;;15.70;83.80;;;;;;5046364;28;20107;-43
2021/05/18 17:04:17;;;;;;;5.32;3.05;;;15.70;85.30;;;;;;5048175;28;20525;-44
2021/05/18 17:06:44;;;;;;;5.70;2.90;;;15.60;86.30;;;;;;5048896;28;20025;-43
2021/05/18 17:09:11;;;;;;;5.00;3.13;;;15.50;86.80;;;;;;5047828;28;20025;-43
2021/05/18 17:11:39;;;;;;;4.30;2.33;;;15.30;89.60;;;;;;5048787;28;20024;-44
2021/05/18 17:14:06;;;;;;;4.68;4.15;;;15.20;93.90;;;;;;5047689;28;20091;-44
2021/05/18 17:16:33;;;;;;;7.68;5.00;;;15.10;99.10;;;;;;5047272;28;20013;-43
2021/05/18 17:18:58;;;;;;;6.55;4.47;;;14.60;99.90;;;;;;5047204;28;20104;-44
2021/05/18 17:21:24;;;;;;;5.63;4.20;;;14.50;99.90;;;;;;5046771;28;20522;-44
2021/05/18 17:23:51;;;;;;;9.70;4.45;;;14.30;99.90;;;;;;5046849;28;20479;-46
2021/05/18 17:26:16;;;;;;;5.30;4.38;;;13.90;99.90;;;;;;5047222;28;20096;-43
2021/05/18 17:28:42;;;;;;;6.53;5.32;;;13.80;99.90;;;;;;5046661;28;20120;-43
2021/05/18 17:31:11;;;;;;;6.75;4.70;;;13.60;99.90;;;;;;5047063;28;20025;-43